Terminal Aerodrome Forecast
Issued by NWS Denver/Boulder, CO

Home | Current Version | Previous Version | Text Only | Print | Product List | Glossary On
Versions: 1 2 3 4 5 6 7 8 9 10 11 12 13 14 15 16 17 18 19 20 21 22 23 24 25 26 27 28 29 30 31 32 33 34 35 36 37 38
000
FTUS45 KBOU 280310 AAD
TAFDEN
TAF AMD
KDEN 280310Z 2803/0106 22015KT P6SM FEW120 BKN220
     FM280400 01015KT P6SM FEW080 SCT120 BKN220
     FM280600 05010KT P6SM FEW050 SCT100 BKN200
     FM281100 13007KT P6SM SCT050 BKN110
     FM282000 08011KT P6SM SCT010 BKN050 OVC100
      TEMPO 2821/2824 5SM -SHSN BR BKN010 OVC020
     FM010000 04014KT 2SM -SHSN BR BKN010 OVC015
     FM010300 28012KT 5SM -SHSN BR SCT010 BKN040
     FM010500 27008KT P6SM VCSH SCT050 SCT090=

USA.gov is the U.S. government's official web portal to all federal, state and local government web resources and services.